Ginga — JJ4054 — position and weather

sailwx.info

Track history (hours):
 
Tides and Currents Weather Stations Pressure Air Temp Water Temp Dewpoint Dewpoint Depression Visibility Wind Speed Wind Dir Waves Ship Positions

Ginga

Last reported at 2015-Jul-03 19:33 UTC. Time now 2015-Jul-07 06:48 UTC.
Position N 34°38' E 135°09'.

Length 28 m; draft 1.6 m.

Type: Other ship. MMSI: 431301704.

Date/timePositionNaut miles runAvg speedWind from/ knotsBaromVisibWave heightAir tempDewpointWater temp
2015-Jul-03 19:33N 34°38' E 135°09'6 6.4
2015-Jul-03 18:33N 34°37' E 135°01'6 6.3
2015-Jul-03 17:33N 34°36' E 135°09'3 0.1
2015-Jul-02 14:22N 34°39' E 135°09'7 8.1
2015-Jul-02 13:30N 34°36' E 135°02'1 1.0
2015-Jul-02 12:33N 34°37' E 135°01'7 7.2
2015-Jul-02 11:34N 34°39' E 135°09'0 0.0
2015-Jul-01 04:34N 34°39' E 135°10'1010.2
2015-Jul-01 03:32N 34°37' E 134°57'7 7.6
2015-Jul-01 02:33N 34°35' E 135°06'5 5.0
2015-Jul-01 01:33N 34°39' E 135°09'0 0.0
2015-Jun-29 19:27N 34°39' E 135°09'1011.0
2015-Jun-29 18:33N 34°38' E 134°58'7 6.7
2015-Jun-29 17:33N 34°36' E 135°06'4 4.5
2015-Jun-29 16:33N 34°39' E 135°09'0 0.0
2015-Jun-29 12:07N 34°39' E 135°09'610.5
2015-Jun-29 11:33N 34°35' E 135°04'5 5.3
2015-Jun-29 10:33N 34°38' E 134°58'4 1.5
2015-Jun-29 07:33N 34°36' E 135°03'4 4.4
2015-Jun-29 06:34N 34°38' E 134°58'9 9.0
2015-Jun-29 05:33N 34°39' E 135°09'0 0.0
2015-Jun-28 13:26N 34°39' E 135°09'7 3.4
2015-Jun-28 11:30N 34°38' E 135°02'7 6.9
2015-Jun-28 10:33N 34°39' E 135°09'6 0.2
2015-Jun-27 07:33N 34°34' E 135°06'8 8.0
2015-Jun-27 06:33N 34°36' E 134°56'6 0.6
2015-Jun-26 21:04N 34°38' E 135°03'4 6.2
2015-Jun-26 20:30N 34°37' E 134°59'1 1.2
2015-Jun-26 19:33N 34°37' E 135°00'3 2.6
2015-Jun-26 18:33N 34°36' E 135°03'6 5.8
2015-Jun-26 17:33N 34°38' E 135°10'1 0.1
2015-Jun-26 03:33N 34°39' E 135°09'1514.1
2015-Jun-26 02:31N 34°25' E 135°04'5 3.9
2015-Jun-26 01:19N 34°22' E 134°60'1115.1
2015-Jun-26 00:33N 34°28' E 135°11'1110.9
2015-Jun-25 23:33N 34°33' E 135°23'2 1.6
2015-Jun-25 22:32N 34°34' E 135°21'10 0.6
2015-Jun-25 05:33N 34°39' E 135°10'10 8.1
2015-Jun-25 04:17N 34°37' E 134°58'4 4.8
2015-Jun-25 03:22N 34°38' E 135°03'0 0.0
2015-Jun-25 02:33N 34°38' E 135°03'9 8.9
2015-Jun-25 01:33N 34°35' E 135°13'9 8.5
2015-Jun-25 00:30N 34°33' E 135°24'8 8.1
2015-Jun-24 23:34N 34°31' E 135°15'2411.2
2015-Jun-24 21:24N 34°11' E 134°59'14 1.3
2015-Jun-24 10:32N 34°25' E 134°58'11 3.6
2015-Jun-24 07:33N 34°35' E 135°03'4 3.7
2015-Jun-24 06:25N 34°38' E 134°58'1011.4
2015-Jun-24 05:33N 34°39' E 135°10'0 0.1
2015-Jun-24 00:19N 34°39' E 135°09'911.6
2015-Jun-23 23:31N 34°38' E 134°58'7 7.3
2015-Jun-23 22:33N 34°35' E 135°06'5 4.7
2015-Jun-23 21:33N 34°39' E 135°09'  
Track history (hours):
 
Tides and Currents Weather Stations Pressure Air Temp Water Temp Dewpoint Dewpoint Depression Visibility Wind Speed Wind Dir Waves Ship Positions

Ginga

Last reported at 2015-Jul-03 19:33 UTC. Time now 2015-Jul-07 06:48 UTC.
Position N 34°38' E 135°09'.

Length 28 m; draft 1.6 m.

Type: Other ship. MMSI: 431301704.

Date/timePositionNaut miles runAvg speedWind from/ knotsBaromVisibWave heightAir tempDewpointWater temp
2015-Jul-03 19:33N 34°38' E 135°09'6 6.4
2015-Jul-03 18:33N 34°37' E 135°01'6 6.3
2015-Jul-03 17:33N 34°36' E 135°09'3 0.1
2015-Jul-02 14:22N 34°39' E 135°09'7 8.1
2015-Jul-02 13:30N 34°36' E 135°02'1 1.0
2015-Jul-02 12:33N 34°37' E 135°01'7 7.2
2015-Jul-02 11:34N 34°39' E 135°09'0 0.0
2015-Jul-01 04:34N 34°39' E 135°10'1010.2
2015-Jul-01 03:32N 34°37' E 134°57'7 7.6
2015-Jul-01 02:33N 34°35' E 135°06'5 5.0
2015-Jul-01 01:33N 34°39' E 135°09'0 0.0
2015-Jun-29 19:27N 34°39' E 135°09'1011.0
2015-Jun-29 18:33N 34°38' E 134°58'7 6.7
2015-Jun-29 17:33N 34°36' E 135°06'4 4.5
2015-Jun-29 16:33N 34°39' E 135°09'0 0.0
2015-Jun-29 12:07N 34°39' E 135°09'610.5
2015-Jun-29 11:33N 34°35' E 135°04'5 5.3
2015-Jun-29 10:33N 34°38' E 134°58'4 1.5
2015-Jun-29 07:33N 34°36' E 135°03'4 4.4
2015-Jun-29 06:34N 34°38' E 134°58'9 9.0
2015-Jun-29 05:33N 34°39' E 135°09'0 0.0
2015-Jun-28 13:26N 34°39' E 135°09'7 3.4
2015-Jun-28 11:30N 34°38' E 135°02'7 6.9
2015-Jun-28 10:33N 34°39' E 135°09'6 0.2
2015-Jun-27 07:33N 34°34' E 135°06'8 8.0
2015-Jun-27 06:33N 34°36' E 134°56'6 0.6
2015-Jun-26 21:04N 34°38' E 135°03'4 6.2
2015-Jun-26 20:30N 34°37' E 134°59'1 1.2
2015-Jun-26 19:33N 34°37' E 135°00'3 2.6
2015-Jun-26 18:33N 34°36' E 135°03'6 5.8
2015-Jun-26 17:33N 34°38' E 135°10'1 0.1
2015-Jun-26 03:33N 34°39' E 135°09'1514.1
2015-Jun-26 02:31N 34°25' E 135°04'5 3.9
2015-Jun-26 01:19N 34°22' E 134°60'1115.1
2015-Jun-26 00:33N 34°28' E 135°11'1110.9
2015-Jun-25 23:33N 34°33' E 135°23'2 1.6
2015-Jun-25 22:32N 34°34' E 135°21'10 0.6
2015-Jun-25 05:33N 34°39' E 135°10'10 8.1
2015-Jun-25 04:17N 34°37' E 134°58'4 4.8
2015-Jun-25 03:22N 34°38' E 135°03'0 0.0
2015-Jun-25 02:33N 34°38' E 135°03'9 8.9
2015-Jun-25 01:33N 34°35' E 135°13'9 8.5
2015-Jun-25 00:30N 34°33' E 135°24'8 8.1
2015-Jun-24 23:34N 34°31' E 135°15'2411.2
2015-Jun-24 21:24N 34°11' E 134°59'14 1.3
2015-Jun-24 10:32N 34°25' E 134°58'11 3.6
2015-Jun-24 07:33N 34°35' E 135°03'4 3.7
2015-Jun-24 06:25N 34°38' E 134°58'1011.4
2015-Jun-24 05:33N 34°39' E 135°10'0 0.1
2015-Jun-24 00:19N 34°39' E 135°09'911.6
2015-Jun-23 23:31N 34°38' E 134°58'7 7.3
2015-Jun-23 22:33N 34°35' E 135°06'5 4.7
2015-Jun-23 21:33N 34°39' E 135°09'  

Dump ship's entire track history